createdAt,value
2017-08-31T00:01:18.172Z,0
2017-08-31T00:02:39.998Z,0
2017-08-31T00:04:02.508Z,0
2017-08-31T00:05:24.654Z,0
2017-08-31T00:06:46.810Z,0
2017-08-31T00:08:08.972Z,0
2017-08-31T00:09:31.394Z,0
2017-08-31T00:10:53.199Z,0
2017-08-31T00:12:15.053Z,0
2017-08-31T00:13:37.200Z,0
2017-08-31T00:14:59.115Z,0
2017-08-31T00:16:21.263Z,0
2017-08-31T00:17:43.097Z,0
2017-08-31T00:19:05.269Z,0
2017-08-31T00:20:27.363Z,0
2017-08-31T00:21:49.521Z,0
2017-08-31T00:23:11.685Z,0
2017-08-31T00:24:33.246Z,0
2017-08-31T00:25:56.072Z,0
2017-08-31T00:27:18.253Z,0
2017-08-31T00:28:39.757Z,0
2017-08-31T00:30:01.912Z,0
2017-08-31T00:31:23.910Z,0
2017-08-31T00:32:45.433Z,0
2017-08-31T00:34:07.593Z,0
2017-08-31T00:35:29.463Z,0
2017-08-31T00:36:51.653Z,0
2017-08-31T00:38:13.502Z,0
2017-08-31T00:39:35.373Z,0
2017-08-31T00:40:57.245Z,0
2017-08-31T00:42:20.213Z,0
2017-08-31T00:43:42.610Z,0
2017-08-31T00:45:03.792Z,0
2017-08-31T00:46:25.286Z,0
2017-08-31T00:47:47.472Z,0
2017-08-31T00:49:08.998Z,0
2017-08-31T00:50:31.163Z,0
2017-08-31T00:51:52.980Z,0
2017-08-31T00:53:15.482Z,0
2017-08-31T00:54:37.306Z,0
2017-08-31T00:55:59.466Z,0
2017-08-31T00:57:21.293Z,0
2017-08-31T00:58:43.853Z,0
2017-08-31T01:00:06.175Z,0
2017-08-31T01:01:28.339Z,0
2017-08-31T01:02:50.514Z,0
2017-08-31T01:04:12.085Z,0
2017-08-31T01:05:34.695Z,0
2017-08-31T01:06:56.233Z,0
2017-08-31T01:08:17.906Z,0
2017-08-31T01:09:40.409Z,0
2017-08-31T01:11:02.621Z,0
2017-08-31T01:12:24.193Z,0
2017-08-31T01:13:46.403Z,0
2017-08-31T01:15:09.324Z,0
2017-08-31T01:16:30.871Z,0
2017-08-31T01:17:52.690Z,0
2017-08-31T01:19:14.513Z,0
2017-08-31T01:20:37.473Z,0
2017-08-31T01:22:00.029Z,0
2017-08-31T01:23:22.516Z,0
2017-08-31T01:24:44.981Z,0
2017-08-31T01:26:07.163Z,0
2017-08-31T01:27:29.330Z,0
2017-08-31T01:28:51.468Z,0
2017-08-31T01:30:12.775Z,0
2017-08-31T01:31:34.872Z,0
2017-08-31T01:32:56.685Z,0
2017-08-31T01:34:18.524Z,0
2017-08-31T01:35:40.732Z,0
2017-08-31T01:37:03.231Z,0
2017-08-31T01:38:25.083Z,0
2017-08-31T01:39:46.932Z,0
2017-08-31T01:41:08.761Z,0
2017-08-31T01:42:30.617Z,0
2017-08-31T01:43:52.856Z,0
2017-08-31T01:45:15.327Z,0
2017-08-31T01:46:36.963Z,0
2017-08-31T01:47:59.782Z,0
2017-08-31T01:49:21.311Z,0
2017-08-31T01:50:43.921Z,0
2017-08-31T01:52:06.384Z,0
2017-08-31T01:53:29.174Z,0
2017-08-31T01:54:51.342Z,0
2017-08-31T01:56:13.517Z,0
2017-08-31T01:57:35.983Z,0
2017-08-31T01:58:58.833Z,0
2017-08-31T02:00:21.064Z,0
2017-08-31T02:01:42.892Z,0
2017-08-31T02:03:04.743Z,0
2017-08-31T02:04:26.576Z,0
2017-08-31T02:05:48.442Z,0
2017-08-31T02:07:10.929Z,0
2017-08-31T02:08:32.449Z,0
2017-08-31T02:09:54.703Z,0
2017-08-31T02:11:16.532Z,0
2017-08-31T02:12:38.692Z,0
2017-08-31T02:13:59.888Z,0
2017-08-31T02:15:22.433Z,0
2017-08-31T02:16:45.072Z,0
2017-08-31T02:18:06.572Z,0
2017-08-31T02:19:28.102Z,0
2017-08-31T02:20:49.643Z,0
2017-08-31T02:22:11.492Z,0
2017-08-31T02:23:32.998Z,0
2017-08-31T02:24:55.173Z,0
2017-08-31T02:26:17.688Z,0
2017-08-31T02:27:39.243Z,0
2017-08-31T02:29:01.110Z,0
2017-08-31T02:30:22.951Z,0
2017-08-31T02:31:45.781Z,0
2017-08-31T02:33:07.616Z,0
2017-08-31T02:34:29.844Z,0
2017-08-31T02:35:51.992Z,0
2017-08-31T02:37:13.863Z,0
2017-08-31T02:38:35.398Z,0
2017-08-31T02:39:57.024Z,0
2017-08-31T02:41:18.852Z,0
2017-08-31T02:42:40.805Z,0
2017-08-31T02:44:03.290Z,0
2017-08-31T02:45:24.474Z,0
2017-08-31T02:46:47.052Z,0
2017-08-31T02:48:09.643Z,0
2017-08-31T02:49:32.173Z,0
2017-08-31T02:50:54.303Z,0
2017-08-31T02:52:16.511Z,0
2017-08-31T02:53:39.037Z,0
2017-08-31T02:55:01.501Z,0
2017-08-31T02:56:23.635Z,0
2017-08-31T02:57:45.794Z,0
2017-08-31T02:59:08.213Z,0
2017-08-31T03:00:30.030Z,0
2017-08-31T03:01:52.322Z,0
2017-08-31T03:03:14.473Z,0
2017-08-31T03:04:36.640Z,0
2017-08-31T03:05:58.891Z,0
2017-08-31T03:07:20.082Z,0
2017-08-31T03:08:42.213Z,0
2017-08-31T03:10:04.713Z,0
2017-08-31T03:11:26.856Z,0
2017-08-31T03:12:49.140Z,0
2017-08-31T03:14:10.983Z,0
2017-08-31T03:15:32.473Z,0
2017-08-31T03:16:53.638Z,0
2017-08-31T03:18:15.790Z,0
2017-08-31T03:19:37.360Z,0
2017-08-31T03:20:58.913Z,0
2017-08-31T03:22:21.062Z,0
2017-08-31T03:23:42.899Z,0
2017-08-31T03:25:04.763Z,0
2017-08-31T03:26:26.992Z,0
2017-08-31T03:27:49.553Z,0
2017-08-31T03:29:12.024Z,0
2017-08-31T03:30:33.857Z,0
2017-08-31T03:31:56.048Z,0
2017-08-31T03:33:18.275Z,0
2017-08-31T03:34:40.430Z,0
2017-08-31T03:36:02.617Z,0
2017-08-31T03:37:24.810Z,0
2017-08-31T03:38:46.963Z,0
2017-08-31T03:40:09.173Z,0
2017-08-31T03:41:31.323Z,0
2017-08-31T03:42:53.897Z,0
2017-08-31T03:44:16.350Z,0
2017-08-31T03:45:37.983Z,0
2017-08-31T03:47:00.273Z,0
2017-08-31T03:48:22.475Z,0
2017-08-31T03:49:44.316Z,0
2017-08-31T03:51:05.817Z,0
2017-08-31T03:52:27.986Z,0
2017-08-31T03:53:50.494Z,0
2017-08-31T03:55:12.323Z,0
2017-08-31T03:56:34.820Z,0
2017-08-31T03:57:57.054Z,0
2017-08-31T03:59:19.221Z,0
2017-08-31T04:00:41.864Z,0
2017-08-31T04:02:04.013Z,0
2017-08-31T04:03:25.841Z,0
2017-08-31T04:04:48.151Z,0
2017-08-31T04:06:10.651Z,0
2017-08-31T04:07:32.412Z,0
2017-08-31T04:08:53.907Z,0
2017-08-31T04:10:16.086Z,0
2017-08-31T04:11:38.673Z,0
2017-08-31T04:13:01.133Z,0
2017-08-31T04:14:22.320Z,0
2017-08-31T04:15:44.230Z,0
2017-08-31T04:17:06.711Z,0
2017-08-31T04:18:28.544Z,0
2017-08-31T04:19:50.433Z,0
2017-08-31T04:21:12.939Z,0
2017-08-31T04:22:35.182Z,0
2017-08-31T04:23:57.334Z,0
2017-08-31T04:25:19.821Z,0
2017-08-31T04:26:42.243Z,0
2017-08-31T04:28:04.442Z,0
2017-08-31T04:29:26.002Z,0
2017-08-31T04:30:47.522Z,0
2017-08-31T04:32:09.654Z,0
2017-08-31T04:33:31.789Z,0
2017-08-31T04:34:53.293Z,0
2017-08-31T04:36:15.782Z,0
2017-08-31T04:37:38.501Z,0
2017-08-31T04:39:00.662Z,0
2017-08-31T04:40:22.813Z,0
2017-08-31T04:41:44.979Z,0
2017-08-31T04:43:07.145Z,0
2017-08-31T04:44:29.310Z,0
2017-08-31T04:45:51.144Z,5
2017-08-31T04:47:13.312Z,5
2017-08-31T04:48:35.764Z,5
2017-08-31T04:49:57.275Z,5
2017-08-31T04:51:18.883Z,5
2017-08-31T04:52:40.418Z,5
2017-08-31T04:54:03.020Z,5
2017-08-31T04:55:24.872Z,5
2017-08-31T04:56:47.101Z,10
2017-08-31T04:58:09.253Z,10
2017-08-31T04:59:31.446Z,10
2017-08-31T05:00:52.976Z,10
2017-08-31T05:02:14.486Z,10
2017-08-31T05:03:36.634Z,5
2017-08-31T05:04:58.732Z,5
2017-08-31T05:06:21.273Z,5
2017-08-31T05:07:43.095Z,5
2017-08-31T05:09:04.614Z,5
2017-08-31T05:10:27.103Z,10
2017-08-31T05:11:49.082Z,15
2017-08-31T05:13:10.974Z,15
2017-08-31T05:14:32.793Z,10
2017-08-31T05:15:54.705Z,10
2017-08-31T05:17:16.535Z,10
2017-08-31T05:18:38.386Z,15
2017-08-31T05:20:00.603Z,15
2017-08-31T05:21:23.352Z,20
2017-08-31T05:22:45.202Z,20
2017-08-31T05:24:07.051Z,25
2017-08-31T05:25:29.523Z,25
2017-08-31T05:26:52.034Z,25
2017-08-31T05:28:13.343Z,30
2017-08-31T05:29:35.483Z,30
2017-08-31T05:30:57.020Z,30
2017-08-31T05:32:18.903Z,25
2017-08-31T05:33:41.370Z,20
2017-08-31T05:35:03.515Z,25
2017-08-31T05:36:26.293Z,25
2017-08-31T05:37:48.193Z,30
2017-08-31T05:39:10.083Z,30
2017-08-31T05:40:32.286Z,25
2017-08-31T05:41:53.793Z,25
2017-08-31T05:43:15.343Z,25
2017-08-31T05:44:37.501Z,25
2017-08-31T05:45:59.343Z,30
2017-08-31T05:47:21.174Z,30
2017-08-31T05:48:43.810Z,35
2017-08-31T05:50:05.684Z,30
2017-08-31T05:51:27.844Z,35
2017-08-31T05:52:49.663Z,40
2017-08-31T05:54:12.263Z,35
2017-08-31T05:55:34.724Z,40
2017-08-31T05:56:57.203Z,35
2017-08-31T05:58:19.438Z,30
2017-08-31T05:59:41.979Z,25
2017-08-31T06:01:04.384Z,30
2017-08-31T06:02:25.890Z,25
2017-08-31T06:03:47.458Z,25
2017-08-31T06:05:09.973Z,20
2017-08-31T06:06:31.284Z,20
2017-08-31T06:07:53.604Z,20
2017-08-31T06:09:15.124Z,20
2017-08-31T06:10:37.613Z,40
2017-08-31T06:11:59.774Z,40
2017-08-31T06:13:21.626Z,40
2017-08-31T06:14:43.794Z,35
2017-08-31T06:16:05.986Z,25
2017-08-31T06:17:27.799Z,30
2017-08-31T06:18:49.753Z,40
2017-08-31T06:20:11.951Z,45
2017-08-31T06:21:34.144Z,70
2017-08-31T06:22:56.630Z,85
2017-08-31T06:24:18.855Z,75
2017-08-31T06:25:40.496Z,60
2017-08-31T06:27:03.049Z,45
2017-08-31T06:28:24.938Z,40
2017-08-31T06:29:46.913Z,35
2017-08-31T06:31:08.743Z,25
2017-08-31T06:32:30.957Z,25
2017-08-31T06:33:53.447Z,20
2017-08-31T06:35:15.593Z,25
2017-08-31T06:36:37.416Z,25
2017-08-31T06:37:59.803Z,30
2017-08-31T06:39:24.374Z,25
2017-08-31T06:40:46.949Z,20
2017-08-31T06:42:09.093Z,25
2017-08-31T06:43:31.178Z,35
2017-08-31T06:44:52.989Z,35
2017-08-31T06:46:15.183Z,35
2017-08-31T06:47:36.731Z,40
2017-08-31T06:48:58.644Z,55
2017-08-31T06:50:20.894Z,75
2017-08-31T06:51:43.044Z,80
2017-08-31T06:53:04.866Z,75
2017-08-31T06:54:27.384Z,75
2017-08-31T06:55:49.526Z,75
2017-08-31T06:57:11.824Z,75
2017-08-31T06:58:33.331Z,75
2017-08-31T06:59:55.872Z,75
2017-08-31T07:01:18.055Z,65
2017-08-31T07:02:40.224Z,55
2017-08-31T07:04:03.834Z,55
2017-08-31T07:05:26.361Z,55
2017-08-31T07:06:48.851Z,50
2017-08-31T07:08:10.367Z,55
2017-08-31T07:09:32.838Z,70
2017-08-31T07:10:54.974Z,95
2017-08-31T07:12:17.133Z,105
2017-08-31T07:13:38.962Z,125
2017-08-31T07:15:00.571Z,145
2017-08-31T07:16:23.036Z,155
2017-08-31T07:17:44.865Z,165
2017-08-31T07:19:07.030Z,175
2017-08-31T07:20:29.678Z,180
2017-08-31T07:21:51.895Z,165
2017-08-31T07:23:13.714Z,150
2017-08-31T07:24:35.989Z,150
2017-08-31T07:25:58.150Z,155
2017-08-31T07:27:20.753Z,180
2017-08-31T07:28:43.062Z,190
2017-08-31T07:30:04.242Z,190
2017-08-31T07:31:26.103Z,195
2017-08-31T07:32:48.605Z,180
2017-08-31T07:34:11.093Z,145
2017-08-31T07:35:32.935Z,165
2017-08-31T07:36:55.191Z,185
2017-08-31T07:38:16.957Z,185
2017-08-31T07:39:39.480Z,175
2017-08-31T07:41:01.332Z,170
2017-08-31T07:42:22.823Z,155
2017-08-31T07:43:45.174Z,145
2017-08-31T07:45:07.387Z,160
2017-08-31T07:46:29.542Z,180
2017-08-31T07:47:51.383Z,190
2017-08-31T07:49:14.102Z,195
2017-08-31T07:50:36.583Z,200
2017-08-31T07:51:59.126Z,200
2017-08-31T07:53:21.615Z,210
2017-08-31T07:54:44.223Z,210
2017-08-31T07:56:05.753Z,205
2017-08-31T07:57:27.564Z,210
2017-08-31T07:58:50.024Z,215
2017-08-31T08:00:12.514Z,220
2017-08-31T08:01:35.003Z,230
2017-08-31T08:02:57.148Z,240
2017-08-31T08:04:18.657Z,245
2017-08-31T08:05:40.895Z,250
2017-08-31T08:07:02.724Z,245
2017-08-31T08:08:24.974Z,225
2017-08-31T08:09:47.619Z,240
2017-08-31T08:11:09.062Z,240
2017-08-31T08:12:31.314Z,260
2017-08-31T08:13:53.483Z,255
2017-08-31T08:15:15.685Z,275
2017-08-31T08:16:38.073Z,270
2017-08-31T08:17:59.582Z,215
2017-08-31T08:19:21.091Z,180
2017-08-31T08:20:43.240Z,220
2017-08-31T08:22:05.704Z,235
2017-08-31T08:23:27.931Z,255
2017-08-31T08:24:50.416Z,250
2017-08-31T08:26:12.562Z,280
2017-08-31T08:27:34.714Z,250
2017-08-31T08:28:56.993Z,220
2017-08-31T08:30:19.501Z,180
2017-08-31T08:31:41.012Z,165
2017-08-31T08:33:03.862Z,190
2017-08-31T08:34:25.713Z,190
2017-08-31T08:35:47.927Z,180
2017-08-31T08:37:10.420Z,185
2017-08-31T08:38:32.358Z,185
2017-08-31T08:39:54.624Z,200
2017-08-31T08:41:16.795Z,205
2017-08-31T08:42:38.962Z,225
2017-08-31T08:44:01.373Z,255
2017-08-31T08:45:23.855Z,250
2017-08-31T08:46:45.695Z,220
2017-08-31T08:48:07.847Z,220
2017-08-31T08:49:30.318Z,180
2017-08-31T08:50:52.911Z,140
2017-08-31T08:52:14.742Z,165
2017-08-31T08:53:36.267Z,180
2017-08-31T08:54:58.446Z,170
2017-08-31T08:56:20.653Z,185
2017-08-31T08:57:42.497Z,195
2017-08-31T08:59:04.001Z,185
2017-08-31T09:00:26.423Z,190
2017-08-31T09:01:48.933Z,170
2017-08-31T09:03:11.162Z,165
2017-08-31T09:04:33.059Z,180
2017-08-31T09:05:55.454Z,180
2017-08-31T09:07:17.950Z,210
2017-08-31T09:08:40.119Z,210
2017-08-31T09:10:02.325Z,265
2017-08-31T09:11:24.854Z,305
2017-08-31T09:12:46.716Z,330
2017-08-31T09:14:08.663Z,330
2017-08-31T09:15:30.853Z,310
2017-08-31T09:16:53.573Z,320
2017-08-31T09:18:15.477Z,325
2017-08-31T09:19:37.303Z,280
2017-08-31T09:20:59.451Z,180
2017-08-31T09:22:22.256Z,155
2017-08-31T09:23:44.933Z,115
2017-08-31T09:25:06.763Z,100
2017-08-31T09:26:28.592Z,100
2017-08-31T09:27:51.441Z,105
2017-08-31T09:29:13.589Z,110
2017-08-31T09:30:35.521Z,130
2017-08-31T09:31:57.042Z,155
2017-08-31T09:33:19.535Z,145
2017-08-31T09:34:41.355Z,165
2017-08-31T09:36:03.813Z,245
2017-08-31T09:37:25.979Z,270
2017-08-31T09:38:48.221Z,275
2017-08-31T09:40:10.049Z,280
2017-08-31T09:41:31.952Z,265
2017-08-31T09:42:53.467Z,240
2017-08-31T09:44:15.623Z,150
2017-08-31T09:45:37.143Z,140
2017-08-31T09:46:59.005Z,125
2017-08-31T09:48:22.032Z,145
2017-08-31T09:49:44.713Z,150
2017-08-31T09:51:06.202Z,195
2017-08-31T09:52:28.042Z,275
2017-08-31T09:53:49.910Z,290
2017-08-31T09:55:11.711Z,250
2017-08-31T09:56:33.207Z,180
2017-08-31T09:57:55.347Z,145
2017-08-31T09:59:17.802Z,120
2017-08-31T10:00:40.636Z,120
2017-08-31T10:02:02.801Z,105
2017-08-31T10:03:24.315Z,105
2017-08-31T10:04:46.833Z,110
2017-08-31T10:06:09.584Z,120
2017-08-31T10:07:31.742Z,160
2017-08-31T10:08:53.035Z,235
2017-08-31T10:10:15.553Z,285
2017-08-31T10:11:37.973Z,250
2017-08-31T10:13:00.546Z,215
2017-08-31T10:14:23.043Z,195
2017-08-31T10:15:45.203Z,235
2017-08-31T10:17:07.667Z,300
2017-08-31T10:18:29.183Z,330
2017-08-31T10:19:51.334Z,335
2017-08-31T10:21:13.157Z,375
2017-08-31T10:22:35.904Z,430
2017-08-31T10:23:58.372Z,455
2017-08-31T10:25:20.252Z,475
2017-08-31T10:26:42.073Z,520
2017-08-31T10:28:04.144Z,480
2017-08-31T10:29:26.633Z,485
2017-08-31T10:30:48.503Z,465
2017-08-31T10:32:10.984Z,445
2017-08-31T10:33:33.069Z,495
2017-08-31T10:34:54.933Z,505
2017-08-31T10:36:16.471Z,515
2017-08-31T10:37:37.998Z,485
2017-08-31T10:39:00.129Z,440
2017-08-31T10:40:22.060Z,415
2017-08-31T10:41:43.912Z,400
2017-08-31T10:43:06.399Z,435
2017-08-31T10:44:29.023Z,475
2017-08-31T10:45:51.180Z,490
2017-08-31T10:47:12.994Z,515
2017-08-31T10:48:34.822Z,470
2017-08-31T10:49:56.947Z,440
2017-08-31T10:51:18.793Z,495
2017-08-31T10:52:40.633Z,430
2017-08-31T10:54:03.051Z,435
2017-08-31T10:55:25.563Z,430
2017-08-31T10:56:47.811Z,455
2017-08-31T10:58:09.323Z,470
2017-08-31T10:59:31.168Z,500
2017-08-31T11:00:53.664Z,495
2017-08-31T11:02:16.154Z,450
2017-08-31T11:03:38.734Z,365
2017-08-31T11:05:01.233Z,360
2017-08-31T11:06:23.393Z,395
2017-08-31T11:07:44.934Z,365
2017-08-31T11:09:07.096Z,355
2017-08-31T11:10:29.597Z,375
2017-08-31T11:11:52.384Z,410
2017-08-31T11:13:14.552Z,425
2017-08-31T11:14:36.726Z,465
2017-08-31T11:15:58.883Z,470
2017-08-31T11:17:21.674Z,470
2017-08-31T11:18:43.841Z,485
2017-08-31T11:20:05.503Z,425
2017-08-31T11:21:27.751Z,265
2017-08-31T11:22:50.271Z,155
2017-08-31T11:24:12.773Z,110
2017-08-31T11:25:34.294Z,115
2017-08-31T11:26:56.513Z,160
2017-08-31T11:28:20.184Z,245
2017-08-31T11:29:43.286Z,330
2017-08-31T11:31:06.003Z,410
2017-08-31T11:32:28.090Z,445
2017-08-31T11:33:51.044Z,455
2017-08-31T11:35:13.576Z,460
2017-08-31T11:36:36.754Z,445
2017-08-31T11:37:58.883Z,410
2017-08-31T11:39:21.034Z,395
2017-08-31T11:40:43.237Z,345
2017-08-31T11:42:05.771Z,325
2017-08-31T11:43:28.317Z,310
2017-08-31T11:44:50.542Z,295
2017-08-31T11:46:12.717Z,300
2017-08-31T11:47:34.875Z,345
2017-08-31T11:48:57.368Z,400
2017-08-31T11:50:19.583Z,440
2017-08-31T11:51:41.454Z,390
2017-08-31T11:53:03.713Z,315
2017-08-31T11:54:25.933Z,300
2017-08-31T11:55:48.335Z,290
2017-08-31T11:57:09.855Z,340
2017-08-31T11:58:32.350Z,390
2017-08-31T11:59:53.852Z,415
2017-08-31T12:01:16.442Z,425
2017-08-31T12:02:38.597Z,400
2017-08-31T12:04:00.846Z,400
2017-08-31T12:05:22.704Z,435
2017-08-31T12:06:45.567Z,445
2017-08-31T12:08:07.555Z,435
2017-08-31T12:09:29.399Z,435
2017-08-31T12:10:50.992Z,420
2017-08-31T12:12:12.762Z,390
2017-08-31T12:13:34.644Z,380
2017-08-31T12:14:56.592Z,400
2017-08-31T12:16:18.762Z,405
2017-08-31T12:17:41.643Z,410
2017-08-31T12:19:03.988Z,350
2017-08-31T12:20:25.830Z,315
2017-08-31T12:21:48.314Z,315
2017-08-31T12:23:10.832Z,335
2017-08-31T12:24:32.664Z,350
2017-08-31T12:25:54.535Z,340
2017-08-31T12:27:17.028Z,360
2017-08-31T12:28:39.834Z,380
2017-08-31T12:30:02.042Z,410
2017-08-31T12:31:24.213Z,395
2017-08-31T12:32:46.064Z,325
2017-08-31T12:34:08.543Z,305
2017-08-31T12:35:30.442Z,335
2017-08-31T12:36:52.686Z,335
2017-08-31T12:38:14.532Z,340
2017-08-31T12:39:36.647Z,370
2017-08-31T12:40:58.270Z,305
2017-08-31T12:42:20.782Z,310
2017-08-31T12:43:42.662Z,305
2017-08-31T12:45:05.203Z,325
2017-08-31T12:46:27.734Z,340
2017-08-31T12:47:49.583Z,350
2017-08-31T12:49:11.743Z,380
2017-08-31T12:50:34.269Z,335
2017-08-31T12:51:56.754Z,285
2017-08-31T12:53:19.327Z,270
2017-08-31T12:54:41.631Z,275
2017-08-31T12:56:03.839Z,300
2017-08-31T12:57:25.033Z,270
2017-08-31T12:58:47.512Z,250
2017-08-31T13:00:09.344Z,210
2017-08-31T13:01:31.894Z,180
2017-08-31T13:02:54.043Z,160
2017-08-31T13:04:16.541Z,135
2017-08-31T13:05:39.044Z,125
2017-08-31T13:07:01.565Z,125
2017-08-31T13:08:24.054Z,150
2017-08-31T13:09:46.220Z,165
2017-08-31T13:11:08.381Z,165
2017-08-31T13:12:30.904Z,170
2017-08-31T13:13:52.744Z,195
2017-08-31T13:15:15.222Z,205
2017-08-31T13:16:37.570Z,210
2017-08-31T13:17:59.715Z,180
2017-08-31T13:19:21.863Z,160
2017-08-31T13:20:43.912Z,155
2017-08-31T13:22:06.404Z,165
2017-08-31T13:23:28.877Z,165
2017-08-31T13:24:51.043Z,200
2017-08-31T13:26:13.204Z,205
2017-08-31T13:27:35.452Z,280
2017-08-31T13:28:57.953Z,395
2017-08-31T13:30:20.452Z,425
2017-08-31T13:31:42.615Z,390
2017-08-31T13:33:04.806Z,390
2017-08-31T13:34:27.688Z,390
2017-08-31T13:35:49.525Z,360
2017-08-31T13:37:12.025Z,345
2017-08-31T13:38:34.533Z,335
2017-08-31T13:39:57.354Z,345
2017-08-31T13:41:19.178Z,360
2017-08-31T13:42:41.673Z,370
2017-08-31T13:44:04.232Z,380
2017-08-31T13:45:27.023Z,360
2017-08-31T13:46:48.537Z,350
2017-08-31T13:48:11.224Z,340
2017-08-31T13:49:33.396Z,340
2017-08-31T13:50:56.018Z,345
2017-08-31T13:52:18.062Z,335
2017-08-31T13:53:39.893Z,330
2017-08-31T13:55:02.123Z,340
2017-08-31T13:56:24.883Z,360
2017-08-31T13:57:46.737Z,355
2017-08-31T13:59:08.892Z,350
2017-08-31T14:00:31.409Z,360
2017-08-31T14:01:53.942Z,355
2017-08-31T14:03:16.452Z,340
2017-08-31T14:04:38.637Z,335
2017-08-31T14:06:00.583Z,325
2017-08-31T14:07:23.084Z,325
2017-08-31T14:08:45.366Z,335
2017-08-31T14:10:07.850Z,345
2017-08-31T14:11:30.172Z,345
2017-08-31T14:12:53.028Z,350
2017-08-31T14:14:15.503Z,345
2017-08-31T14:15:38.138Z,330
2017-08-31T14:16:59.665Z,315
2017-08-31T14:18:22.585Z,300
2017-08-31T14:19:44.883Z,265
2017-08-31T14:21:07.064Z,225
2017-08-31T14:22:28.742Z,195
2017-08-31T14:23:51.533Z,155
2017-08-31T14:25:13.383Z,105
2017-08-31T14:26:35.574Z,75
2017-08-31T14:27:57.755Z,50
2017-08-31T14:29:20.543Z,55
2017-08-31T14:30:42.703Z,40
2017-08-31T14:32:05.326Z,35
2017-08-31T14:33:27.833Z,70
2017-08-31T14:34:49.948Z,110
2017-08-31T14:36:12.464Z,125
2017-08-31T14:37:34.643Z,145
2017-08-31T14:38:56.819Z,145
2017-08-31T14:40:19.325Z,165
2017-08-31T14:41:41.523Z,175
2017-08-31T14:43:03.823Z,185
2017-08-31T14:44:26.020Z,165
2017-08-31T14:45:48.767Z,140
2017-08-31T14:47:10.969Z,140
2017-08-31T14:48:33.142Z,160
2017-08-31T14:49:54.992Z,175
2017-08-31T14:51:17.721Z,180
2017-08-31T14:52:39.924Z,200
2017-08-31T14:54:02.251Z,215
2017-08-31T14:55:24.834Z,215
2017-08-31T14:56:47.800Z,215
2017-08-31T14:58:10.131Z,215
2017-08-31T14:59:32.012Z,240
2017-08-31T15:00:54.532Z,275
2017-08-31T15:02:16.954Z,290
2017-08-31T15:03:39.493Z,300
2017-08-31T15:05:01.804Z,290
2017-08-31T15:06:24.305Z,275
2017-08-31T15:07:46.834Z,260
2017-08-31T15:09:09.015Z,230
2017-08-31T15:10:31.544Z,225
2017-08-31T15:11:53.709Z,225
2017-08-31T15:13:16.535Z,230
2017-08-31T15:14:39.043Z,235
2017-08-31T15:16:01.083Z,235
2017-08-31T15:17:23.582Z,235
2017-08-31T15:18:46.405Z,235
2017-08-31T15:20:08.593Z,240
2017-08-31T15:21:31.105Z,245
2017-08-31T15:22:53.592Z,250
2017-08-31T15:24:16.124Z,260
2017-08-31T15:25:38.103Z,255
2017-08-31T15:26:59.938Z,245
2017-08-31T15:28:22.464Z,205
2017-08-31T15:29:45.328Z,190
2017-08-31T15:31:07.512Z,170
2017-08-31T15:32:29.365Z,170
2017-08-31T15:33:51.846Z,150
2017-08-31T15:35:13.994Z,135
2017-08-31T15:36:36.496Z,140
2017-08-31T15:37:59.016Z,145
2017-08-31T15:39:21.485Z,145
2017-08-31T15:40:44.224Z,145
2017-08-31T15:42:06.823Z,140
2017-08-31T15:43:29.313Z,115
2017-08-31T15:44:51.873Z,110
2017-08-31T15:46:14.806Z,105
2017-08-31T15:47:37.293Z,120
2017-08-31T15:48:58.812Z,115
2017-08-31T15:50:21.387Z,125
2017-08-31T15:51:43.804Z,140
2017-08-31T15:53:05.679Z,145
2017-08-31T15:54:28.173Z,155
2017-08-31T15:55:50.095Z,180
2017-08-31T15:57:12.913Z,185
2017-08-31T15:58:35.215Z,190
2017-08-31T15:59:57.063Z,190
2017-08-31T16:01:19.227Z,200
2017-08-31T16:02:41.635Z,200
2017-08-31T16:04:04.128Z,200
2017-08-31T16:05:25.994Z,195
2017-08-31T16:06:47.835Z,195
2017-08-31T16:08:10.653Z,190
2017-08-31T16:09:32.595Z,190
2017-08-31T16:10:54.823Z,205
2017-08-31T16:12:16.690Z,195
2017-08-31T16:13:39.426Z,200
2017-08-31T16:15:01.912Z,195
2017-08-31T16:16:24.465Z,195
2017-08-31T16:17:46.645Z,195
2017-08-31T16:19:09.094Z,205
2017-08-31T16:20:30.954Z,210
2017-08-31T16:21:53.178Z,200
2017-08-31T16:23:15.674Z,185
2017-08-31T16:24:38.153Z,180
2017-08-31T16:26:00.018Z,175
2017-08-31T16:27:22.235Z,175
2017-08-31T16:28:44.387Z,175
2017-08-31T16:30:07.226Z,165
2017-08-31T16:31:29.086Z,165
2017-08-31T16:32:51.602Z,155
2017-08-31T16:34:13.474Z,145
2017-08-31T16:35:36.313Z,140
2017-08-31T16:36:58.605Z,130
2017-08-31T16:38:20.779Z,120
2017-08-31T16:39:43.000Z,120
2017-08-31T16:41:05.148Z,120
2017-08-31T16:42:27.735Z,120
2017-08-31T16:43:49.911Z,120
2017-08-31T16:45:12.106Z,115
2017-08-31T16:46:34.785Z,115
2017-08-31T16:47:56.648Z,115
2017-08-31T16:49:18.963Z,120
2017-08-31T16:50:41.454Z,130
2017-08-31T16:52:03.945Z,135
2017-08-31T16:53:26.018Z,140
2017-08-31T16:54:48.515Z,140
2017-08-31T16:56:11.042Z,140
2017-08-31T16:57:33.868Z,140
2017-08-31T16:58:56.037Z,150
2017-08-31T17:00:18.666Z,145
2017-08-31T17:01:40.867Z,140
2017-08-31T17:03:03.583Z,140
2017-08-31T17:04:25.821Z,140
2017-08-31T17:05:48.002Z,135
2017-08-31T17:07:10.620Z,130
2017-08-31T17:08:32.862Z,130
2017-08-31T17:09:55.168Z,125
2017-08-31T17:11:17.653Z,120
2017-08-31T17:12:39.204Z,115
2017-08-31T17:14:01.432Z,110
2017-08-31T17:15:23.955Z,110
2017-08-31T17:16:46.601Z,100
2017-08-31T17:18:08.785Z,105
2017-08-31T17:19:30.903Z,100
2017-08-31T17:20:53.097Z,90
2017-08-31T17:22:15.015Z,90
2017-08-31T17:23:37.243Z,90
2017-08-31T17:24:59.683Z,85
2017-08-31T17:26:21.867Z,85
2017-08-31T17:27:44.175Z,85
2017-08-31T17:29:06.693Z,80
2017-08-31T17:30:29.096Z,80
2017-08-31T17:31:51.065Z,75
2017-08-31T17:33:13.281Z,75
2017-08-31T17:34:35.492Z,70
2017-08-31T17:35:57.731Z,75
2017-08-31T17:37:19.573Z,65
2017-08-31T17:38:41.235Z,65
2017-08-31T17:40:03.944Z,60
2017-08-31T17:41:26.791Z,60
2017-08-31T17:42:48.953Z,55
2017-08-31T17:44:10.863Z,55
2017-08-31T17:45:33.057Z,50
2017-08-31T17:46:55.473Z,50
2017-08-31T17:48:16.997Z,50
2017-08-31T17:49:39.123Z,50
2017-08-31T17:51:01.306Z,45
2017-08-31T17:52:23.653Z,45
2017-08-31T17:53:45.828Z,40
2017-08-31T17:55:08.310Z,40
2017-08-31T17:56:30.897Z,35
2017-08-31T17:57:53.005Z,35
2017-08-31T17:59:14.854Z,30
2017-08-31T18:00:37.371Z,30
2017-08-31T18:01:59.613Z,25
2017-08-31T18:03:22.025Z,25
2017-08-31T18:04:44.610Z,20
2017-08-31T18:06:06.824Z,20
2017-08-31T18:07:28.340Z,15
2017-08-31T18:08:50.859Z,15
2017-08-31T18:10:13.057Z,15
2017-08-31T18:11:35.633Z,10
2017-08-31T18:12:57.834Z,10
2017-08-31T18:14:20.415Z,10
2017-08-31T18:15:42.922Z,10
2017-08-31T18:17:04.759Z,5
2017-08-31T18:18:26.617Z,5
2017-08-31T18:19:49.529Z,5
2017-08-31T18:21:11.453Z,5
2017-08-31T18:22:33.626Z,5
2017-08-31T18:23:55.513Z,5
2017-08-31T18:25:18.428Z,5
2017-08-31T18:26:40.293Z,5
2017-08-31T18:28:02.823Z,0
2017-08-31T18:29:25.406Z,0
2017-08-31T18:30:47.943Z,0
2017-08-31T18:32:10.223Z,0
2017-08-31T18:33:32.782Z,0
2017-08-31T18:34:55.325Z,0
2017-08-31T18:36:18.073Z,0
2017-08-31T18:37:40.573Z,0
2017-08-31T18:39:03.093Z,0
2017-08-31T18:40:25.624Z,0
2017-08-31T18:41:48.373Z,0
2017-08-31T18:43:10.582Z,0
2017-08-31T18:44:33.115Z,0
2017-08-31T18:45:55.348Z,0
2017-08-31T18:47:18.105Z,0
2017-08-31T18:48:40.718Z,0
2017-08-31T18:50:03.223Z,0
2017-08-31T18:51:25.834Z,0
2017-08-31T18:52:48.265Z,0
2017-08-31T18:54:10.785Z,0
2017-08-31T18:55:33.384Z,0
2017-08-31T18:56:55.905Z,0
2017-08-31T18:58:18.371Z,0
2017-08-31T18:59:40.897Z,0
2017-08-31T19:01:03.392Z,0
2017-08-31T19:02:25.576Z,0
2017-08-31T19:03:48.386Z,0
2017-08-31T19:05:10.916Z,0
2017-08-31T19:06:33.445Z,0
2017-08-31T19:07:55.694Z,0
2017-08-31T19:09:18.124Z,0
2017-08-31T19:10:40.654Z,0
2017-08-31T19:12:03.173Z,0
2017-08-31T19:13:25.365Z,0
2017-08-31T19:14:48.097Z,0
2017-08-31T19:16:10.275Z,0
2017-08-31T19:17:32.507Z,0
2017-08-31T19:18:55.031Z,0
2017-08-31T19:20:17.913Z,0
2017-08-31T19:21:40.403Z,0
2017-08-31T19:23:02.955Z,0
2017-08-31T19:24:25.465Z,0